地図

経路データ

SID SEASON NUMBER BASIN SUBBASIN NAME ISO_TIME NATURE LAT LON WMO_WIND WMO_PRES WMO_AGENCY TRACK_TYPE DIST2LAND LANDFALL IFLAG USA_AGENCY USA_ATCF_ID USA_LAT USA_LON USA_RECORD USA_STATUS USA_WIND USA_PRES USA_SSHS USA_R34_NE USA_R34_SE USA_R34_SW USA_R34_NW USA_R50_NE USA_R50_SE USA_R50_SW USA_R50_NW USA_R64_NE USA_R64_SE USA_R64_SW USA_R64_NW USA_POCI USA_ROCI USA_RMW USA_EYE TOKYO_LAT TOKYO_LON TOKYO_GRADE TOKYO_WIND TOKYO_PRES TOKYO_R50_DIR TOKYO_R50_LONG TOKYO_R50_SHORT TOKYO_R30_DIR TOKYO_R30_LONG TOKYO_R30_SHORT TOKYO_LAND CMA_LAT CMA_LON CMA_CAT CMA_WIND CMA_PRES HKO_LAT HKO_LON HKO_CAT HKO_WIND HKO_PRES NEWDELHI_LAT NEWDELHI_LON NEWDELHI_GRADE NEWDELHI_WIND NEWDELHI_PRES NEWDELHI_CI NEWDELHI_DP NEWDELHI_POCI REUNION_LAT REUNION_LON REUNION_TYPE REUNION_WIND REUNION_PRES REUNION_TNUM REUNION_CI REUNION_RMW REUNION_R34_NE REUNION_R34_SE REUNION_R34_SW REUNION_R34_NW REUNION_R50_NE REUNION_R50_SE REUNION_R50_SW REUNION_R50_NW REUNION_R64_NE REUNION_R64_SE REUNION_R64_SW REUNION_R64_NW BOM_LAT BOM_LON BOM_TYPE BOM_WIND BOM_PRES BOM_TNUM BOM_CI BOM_RMW BOM_R34_NE BOM_R34_SE BOM_R34_SW BOM_R34_NW BOM_R50_NE BOM_R50_SE BOM_R50_SW BOM_R50_NW BOM_R64_NE BOM_R64_SE BOM_R64_SW BOM_R64_NW BOM_ROCI BOM_POCI BOM_EYE BOM_POS_METHOD BOM_PRES_METHOD NADI_LAT NADI_LON NADI_CAT NADI_WIND NADI_PRES WELLINGTON_LAT WELLINGTON_LON WELLINGTON_WIND WELLINGTON_PRES DS824_LAT DS824_LON DS824_STAGE DS824_WIND DS824_PRES TD9636_LAT TD9636_LON TD9636_STAGE TD9636_WIND TD9636_PRES TD9635_LAT TD9635_LON TD9635_WIND TD9635_PRES TD9635_ROCI NEUMANN_LAT NEUMANN_LON NEUMANN_CLASS NEUMANN_WIND NEUMANN_PRES MLC_LAT MLC_LON MLC_CLASS MLC_WIND MLC_PRES USA_GUST BOM_GUST BOM_GUST_PER REUNION_GUST REUNION_GUST_PER USA_SEAHGT USA_SEARAD_NE USA_SEARAD_SE USA_SEARAD_SW USA_SEARAD_NW STORM_SPEED STORM_DIR
1949248N27320 1949 70 NA NA NOT_NAMED 1949-09-05 06:00:00 TS 27.3000 -40.4000 35 hurdat_atl main 2317 2316 O_____________ hurdat_atl AL061949 27.3000 -40.4000 TS 35 0 13 325
1949248N27320 1949 70 NA NA NOT_NAMED 1949-09-05 09:00:00 TS 27.8127 -40.7992 main 2349 2289 P_____________ AL061949 27.8127 -40.7992 TS 35 0 12 325
1949248N27320 1949 70 NA NA NOT_NAMED 1949-09-05 12:00:00 TS 28.3000 -41.2000 35 hurdat_atl main 2289 2232 O_____________ hurdat_atl AL061949 28.3000 -41.2000 TS 35 0 12 323
1949248N27320 1949 70 NA NA NOT_NAMED 1949-09-05 15:00:00 TS 28.7499 -41.6005 main 2232 2166 P_____________ AL061949 28.7499 -41.6005 TS 35 0 11 322
1949248N27320 1949 70 NA NA NOT_NAMED 1949-09-05 18:00:00 TS 29.2000 -42.0000 35 hurdat_atl main 2166 2109 O_____________ hurdat_atl AL061949 29.2000 -42.0000 TS 35 0 12 322
1949248N27320 1949 70 NA NA NOT_NAMED 1949-09-05 21:00:00 TS 29.6625 -42.4080 main 2099 2033 P_____________ AL061949 29.6625 -42.4080 TS 37 0 12 325
1949248N27320 1949 70 NA NA NOT_NAMED 1949-09-06 00:00:00 TS 30.2000 -42.8000 40 hurdat_atl main 2033 1956 O_____________ hurdat_atl AL061949 30.2000 -42.8000 TS 40 0 14 331
1949248N27320 1949 70 NA NA NOT_NAMED 1949-09-06 03:00:00 TS 30.8776 -43.1944 main 1946 1863 P_____________ AL061949 30.8776 -43.1944 TS 40 0 15 337
1949248N27320 1949 70 NA NA NOT_NAMED 1949-09-06 06:00:00 TS 31.6000 -43.5000 40 hurdat_atl main 1863 1794 O_____________ hurdat_atl AL061949 31.6000 -43.5000 TS 40 0 15 344
1949248N27320 1949 70 NA NA NOT_NAMED 1949-09-06 09:00:00 TS 32.2723 -43.6679 main 1784 1723 P_____________ AL061949 32.2723 -43.6679 TS 40 0 13 353
1949248N27320 1949 70 NA NA NOT_NAMED 1949-09-06 12:00:00 TS 32.9000 -43.7000 40 hurdat_atl main 1723 1663 O_____________ hurdat_atl AL061949 32.9000 -43.7000 TS 40 0 13 0
1949248N27320 1949 70 NA NA NOT_NAMED 1949-09-06 15:00:00 TS 33.5248 -43.6753 main 1663 1621 P_____________ AL061949 33.5248 -43.6753 TS 40 0 11 9
1949248N27320 1949 70 NA NA NOT_NAMED 1949-09-06 18:00:00 TS 34.0000 -43.5000 40 hurdat_atl main 1621 1610 O_____________ hurdat_atl AL061949 34.0000 -43.5000 TS 40 0 8 31
1949248N27320 1949 70 NA NA NOT_NAMED 1949-09-06 21:00:00 TS 34.2250 -43.1599 main 1614 1609 P_____________ AL061949 34.2250 -43.1599 TS 40 0 7 66
1949248N27320 1949 70 NA NA NOT_NAMED 1949-09-07 00:00:00 TS 34.3000 -42.7000 40 hurdat_atl main 1627 1627 O_____________ hurdat_atl AL061949 34.3000 -42.7000 TS 40 0 8 80
1949248N27320 1949 70 NA NA NOT_NAMED 1949-09-07 03:00:00 TS 34.3652 -42.1923 main 1640 1640 P_____________ AL061949 34.3652 -42.1923 TS 40 0 8 83
1949248N27320 1949 70 NA NA NOT_NAMED 1949-09-07 06:00:00 TS 34.4000 -41.7000 40 hurdat_atl main 1664 1664 O_____________ hurdat_atl AL061949 34.4000 -41.7000 TS 40 0 8 84
1949248N27320 1949 70 NA NA NOT_NAMED 1949-09-07 09:00:00 TS 34.4425 -41.2750 main 1683 1679 P_____________ AL061949 34.4425 -41.2750 TS 40 0 6 80
1949248N27320 1949 70 NA NA NOT_NAMED 1949-09-07 12:00:00 TS 34.5000 -41.0000 40 hurdat_atl main 1689 1680 O_____________ hurdat_atl AL061949 34.5000 -41.0000 TS 40 0 3 60
1949248N27320 1949 70 NA NA NOT_NAMED 1949-09-07 15:00:00 TS 34.5848 -40.9698 main 1680 1670 P_____________ AL061949 34.5848 -40.9698 TS 40 0 2 8
1949248N27320 1949 70 NA NA NOT_NAMED 1949-09-07 18:00:00 TS 34.7000 -41.0000 40 hurdat_atl main 1670 1666 O_____________ hurdat_atl AL061949 34.7000 -41.0000 TS 40 0 3 24
1949248N27320 1949 70 NA NA NOT_NAMED 1949-09-07 21:00:00 TS 34.8426 -40.8278 main 1671 1658 P_____________ AL061949 34.8426 -40.8278 TS 40 0 4 39
1949248N27320 1949 70 NA NA NOT_NAMED 1949-09-08 00:00:00 TS 35.0000 -40.7000 40 hurdat_atl main 1658 1644 O_____________ hurdat_atl AL061949 35.0000 -40.7000 TS 40 0 3 0
1949248N27320 1949 70 NA NA NOT_NAMED 1949-09-08 03:00:00 TS 35.1576 -40.8272 main 1635 1615 P_____________ AL061949 35.1576 -40.8272 TS 40 0 4 321
1949248N27320 1949 70 NA NA NOT_NAMED 1949-09-08 06:00:00 TS 35.3000 -41.0000 40 hurdat_atl main 1615 1606 O_____________ hurdat_atl AL061949 35.3000 -41.0000 TS 40 0 3 326
1949248N27320 1949 70 NA NA NOT_NAMED 1949-09-08 09:00:00 TS 35.4224 -41.0451 main 1606 1597 P_____________ AL061949 35.4224 -41.0451 TS 40 0 2 8
1949248N27320 1949 70 NA NA NOT_NAMED 1949-09-08 12:00:00 TS 35.5000 -41.0000 40 hurdat_atl main 1597 1593 O_____________ hurdat_atl AL061949 35.5000 -41.0000 TS 40 0 2 51
1949248N27320 1949 70 NA NA NOT_NAMED 1949-09-08 15:00:00 TS 35.5526 -40.8500 main 1593 1593 P_____________ AL061949 35.5526 -40.8500 TS 40 0 2 90
1949248N27320 1949 70 NA NA NOT_NAMED 1949-09-08 18:00:00 TS 35.5000 -40.7000 40 hurdat_atl main 1613 1613 O_____________ hurdat_atl AL061949 35.5000 -40.7000 TS 40 0 3 141
1949248N27320 1949 70 NA NA NOT_NAMED 1949-09-08 21:00:00 TS 35.2870 -40.5867 main 1636 1636 P_____________ AL061949 35.2870 -40.5867 TS 40 0 5 178
1949248N27320 1949 70 NA NA NOT_NAMED 1949-09-09 00:00:00 TS 35.0000 -40.7000 40 hurdat_atl main 1658 1653 O_____________ hurdat_atl AL061949 35.0000 -40.7000 TS 40 0 7 222
1949248N27320 1949 70 NA NA NOT_NAMED 1949-09-09 03:00:00 TS 34.7353 -41.1957 main 1660 1645 P_____________ AL061949 34.7353 -41.1957 TS 40 0 11 243
1949248N27320 1949 70 NA NA NOT_NAMED 1949-09-09 06:00:00 TS 34.5000 -41.9000 40 hurdat_atl main 1645 1631 O_____________ hurdat_atl AL061949 34.5000 -41.9000 TS 40 0 13 250
1949248N27320 1949 70 NA NA NOT_NAMED 1949-09-09 09:00:00 TS 34.3057 -42.6527 main 1627 1610 P_____________ AL061949 34.3057 -42.6527 TS 40 0 12 255
1949248N27320 1949 70 NA NA NOT_NAMED 1949-09-09 12:00:00 TS 34.2000 -43.3000 40 hurdat_atl main 1610 1597 O_____________ hurdat_atl AL061949 34.2000 -43.3000 TS 40 0 8 264
1949248N27320 1949 70 NA NA NOT_NAMED 1949-09-09 15:00:00 TS 34.2193 -43.6245 main 1597 1579 P_____________ AL061949 34.2193 -43.6245 TS 40 0 4 284
1949248N27320 1949 70 NA NA NOT_NAMED 1949-09-09 18:00:00 TS 34.3000 -43.8000 40 hurdat_atl main 1579 1570 O_____________ hurdat_atl AL061949 34.3000 -43.8000 TS 40 0 3 291
1949248N27320 1949 70 NA NA NOT_NAMED 1949-09-09 21:00:00 TS 34.3425 -44.0151 main 1570 1552 P_____________ AL061949 34.3425 -44.0151 TS 40 0 3 287
1949248N27320 1949 70 NA NA NOT_NAMED 1949-09-10 00:00:00 TS 34.4000 -44.2000 40 hurdat_atl main 1552 1534 O_____________ hurdat_atl AL061949 34.4000 -44.2000 TS 40 0 3 292
1949248N27320 1949 70 NA NA NOT_NAMED 1949-09-10 03:00:00 TS 34.4625 -44.3800 main 1534 1520 P_____________ AL061949 34.4625 -44.3800 TS 40 0 3 309
1949248N27320 1949 70 NA NA NOT_NAMED 1949-09-10 06:00:00 TS 34.6000 -44.5000 40 hurdat_atl main 1520 1500 O_____________ hurdat_atl AL061949 34.6000 -44.5000 TS 40 0 4 344
1949248N27320 1949 70 NA NA NOT_NAMED 1949-09-10 09:00:00 TS 34.8550 -44.5152 main 1490 1460 P_____________ AL061949 34.8550 -44.5152 TS 40 0 6 0
1949248N27320 1949 70 NA NA NOT_NAMED 1949-09-10 12:00:00 TS 35.2000 -44.5000 40 hurdat_atl main 1460 1431 O_____________ hurdat_atl AL061949 35.2000 -44.5000 TS 40 0 7 356
1949248N27320 1949 70 NA NA NOT_NAMED 1949-09-10 15:00:00 TS 35.5625 -44.5498 main 1421 1377 P_____________ AL061949 35.5625 -44.5498 TS 40 0 8 354
1949248N27320 1949 70 NA NA NOT_NAMED 1949-09-10 18:00:00 TS 36.0000 -44.6000 40 hurdat_atl main 1377 1328 O_____________ hurdat_atl AL061949 36.0000 -44.6000 TS 40 0 10 356
1949248N27320 1949 70 NA NA NOT_NAMED 1949-09-10 21:00:00 TS 36.5200 -44.6369 main 1328 1271 P_____________ AL061949 36.5200 -44.6369 TS 40 0 11 0
1949248N27320 1949 70 NA NA NOT_NAMED 1949-09-11 00:00:00 TS 37.1000 -44.6000 40 hurdat_atl main 1271 1224 O_____________ hurdat_atl AL061949 37.1000 -44.6000 TS 40 0 12 8
1949248N27320 1949 70 NA NA NOT_NAMED 1949-09-11 03:00:00 TS 37.6851 -44.4303 main 1224 1178 P_____________ AL061949 37.6851 -44.4303 TS 40 0 12 15
1949248N27320 1949 70 NA NA NOT_NAMED 1949-09-11 06:00:00 TS 38.3000 -44.2000 40 hurdat_atl main 1178 1135 O_____________ hurdat_atl AL061949 38.3000 -44.2000 TS 40 0 13 15
1949248N27320 1949 70 NA NA NOT_NAMED 1949-09-11 09:00:00 TS 38.9048 -44.0283 main 1135 1086 P_____________ AL061949 38.9048 -44.0283 TS 40 0 13 14
1949248N27320 1949 70 NA NA NOT_NAMED 1949-09-11 12:00:00 TS 39.6000 -43.8000 40 hurdat_atl main 1086 1039 O_____________ hurdat_atl AL061949 39.6000 -43.8000 TS 40 0 16 15
1949248N27320 1949 70 NA NA NOT_NAMED 1949-09-11 15:00:00 TS 40.4315 -43.5084 main 1039 996 P_____________ AL061949 40.4315 -43.5084 TS 42 0 19 19
1949248N27320 1949 70 NA NA NOT_NAMED 1949-09-11 18:00:00 TS 41.4000 -43.0000 45 hurdat_atl main 995 979 O_____________ hurdat_atl AL061949 41.4000 -43.0000 TS 45 0 23 27
1949248N27320 1949 70 NA NA NOT_NAMED 1949-09-11 21:00:00 TS 42.4556 -42.1474 main 981 977 P_____________ AL061949 42.4556 -42.1474 TS 50 0 26 33
1949248N27320 1949 70 NA NA NOT_NAMED 1949-09-12 00:00:00 TS 43.6000 -41.1000 55 996 hurdat_atl main 990 988 O_____________ hurdat_atl AL061949 43.6000 -41.1000 TS 55 996 0 28 33
1949248N27320 1949 70 NA NA NOT_NAMED 1949-09-12 03:00:00 TS 44.8305 -40.0223 main 1010 1006 P_____________ AL061949 44.8305 -40.0223 TS 55 0 28 32
1949248N27320 1949 70 NA NA NOT_NAMED 1949-09-12 06:00:00 ET 46.0000 -39.0000 55 hurdat_atl main 1043 1043 O_____________ hurdat_atl AL061949 46.0000 -39.0000 EX 55 -4 26 31
1949248N27320 1949 70 NA NA NOT_NAMED 1949-09-12 09:00:00 ET 47.0268 -38.1287 main 1089 1087 P_____________ AL061949 47.0268 -38.1287 EX 55 -4 21 30
1949248N27320 1949 70 NA NA NOT_NAMED 1949-09-12 12:00:00 ET 47.8000 -37.5000 55 hurdat_atl main 1124 1124 O_____________ hurdat_atl AL061949 47.8000 -37.5000 EX 55 -4 14 28
1949248N27320 1949 70 NA NA NOT_NAMED 1949-09-12 15:00:00 ET 48.2916 -37.1187 main 1151 1151 P_____________ AL061949 48.2916 -37.1187 EX 55 -4 8 25
1949248N27320 1949 70 NA NA NOT_NAMED 1949-09-12 18:00:00 ET 48.5000 -37.0000 55 hurdat_atl main 1158 1158 O_____________ hurdat_atl AL061949 48.5000 -37.0000 EX 55 -4 3 20
1949248N27320 1949 70 NA NA NOT_NAMED 1949-09-12 21:00:00 ET 48.5320 -36.9863 main 1158 1144 P_____________ AL061949 48.5320 -36.9863 EX 57 -4 2 232
1949248N27320 1949 70 NA NA NOT_NAMED 1949-09-13 00:00:00 ET 48.4000 -37.2000 60 hurdat_atl main 1144 1114 O_____________ hurdat_atl AL061949 48.4000 -37.2000 EX 60 -4 5 235
1949248N27320 1949 70 NA NA NOT_NAMED 1949-09-13 03:00:00 ET 48.2375 -37.6173 main 1115 1071 P_____________ AL061949 48.2375 -37.6173 EX 60 -4 8 239
1949248N27320 1949 70 NA NA NOT_NAMED 1949-09-13 06:00:00 ET 48.0000 -38.2000 60 hurdat_atl main 1071 1028 O_____________ hurdat_atl AL061949 48.0000 -38.2000 EX 60 -4 10 238
1949248N27320 1949 70 NA NA NOT_NAMED 1949-09-13 09:00:00 ET 47.7228 -38.8503 main 1021 979 P_____________ AL061949 47.7228 -38.8503 EX 60 -4 11 236
1949248N27320 1949 70 NA NA NOT_NAMED 1949-09-13 12:00:00 ET 47.4000 -39.5000 60 hurdat_atl main 979 946 O_____________ hurdat_atl AL061949 47.4000 -39.5000 EX 60 -4 10 231
1949248N27320 1949 70 NA NA NOT_NAMED 1949-09-13 15:00:00 ET 47.0646 -40.0368 main 946 915 P_____________ AL061949 47.0646 -40.0368 EX 60 -4 10 224
1949248N27320 1949 70 NA NA NOT_NAMED 1949-09-13 18:00:00 ET 46.7000 -40.5000 60 hurdat_atl main 915 891 O_____________ hurdat_atl AL061949 46.7000 -40.5000 EX 60 -4 10 219
1949248N27320 1949 70 NA NA NOT_NAMED 1949-09-13 21:00:00 ET 46.2998 -40.9297 main 894 875 P_____________ AL061949 46.2998 -40.9297 EX 62 -4 10 215
1949248N27320 1949 70 NA NA NOT_NAMED 1949-09-14 00:00:00 ET 45.9000 -41.3000 65 hurdat_atl main 875 863 O_____________ hurdat_atl AL061949 45.9000 -41.3000 EX 65 -4 9 213
1949248N27320 1949 70 NA NA NOT_NAMED 1949-09-14 03:00:00 ET 45.5274 -41.6372 main 866 855 P_____________ AL061949 45.5274 -41.6372 EX 65 -4 8 211
1949248N27320 1949 70 NA NA NOT_NAMED 1949-09-14 06:00:00 ET 45.2000 -41.9000 65 hurdat_atl main 855 849 O_____________ hurdat_atl AL061949 45.2000 -41.9000 EX 65 -4 7 210
1949248N27320 1949 70 NA NA NOT_NAMED 1949-09-14 09:00:00 ET 44.9349 -42.1250 main 854 847 P_____________ AL061949 44.9349 -42.1250 EX 65 -4 5 203
1949248N27320 1949 70 NA NA NOT_NAMED 1949-09-14 12:00:00 ET 44.7000 -42.2000 65 hurdat_atl main 856 856 O_____________ hurdat_atl AL061949 44.7000 -42.2000 EX 65 -4 5 0
1949248N27320 1949 70 NA NA NOT_NAMED 1949-09-14 15:00:00 ET 44.4497 -42.0976 main 877 877 P_____________ AL061949 44.4497 -42.0976 EX 65 -4 6 150
1949248N27320 1949 70 NA NA NOT_NAMED 1949-09-14 18:00:00 ET 44.2000 -41.8000 65 hurdat_atl main 909 909 O_____________ hurdat_atl AL061949 44.2000 -41.8000 EX 65 -4 7 134
1949248N27320 1949 70 NA NA NOT_NAMED 1949-09-14 21:00:00 ET 43.9498 -41.3752 main 952 952 P_____________ AL061949 43.9498 -41.3752 EX 65 -4 9 125
1949248N27320 1949 70 NA NA NOT_NAMED 1949-09-15 00:00:00 ET 43.7000 -40.8000 65 hurdat_atl main 1005 1005 O_____________ hurdat_atl AL061949 43.7000 -40.8000 EX 65 -4 10 119
1949248N27320 1949 70 NA NA NOT_NAMED 1949-09-15 03:00:00 ET 43.4426 -40.1299 main 1071 1071 P_____________ AL061949 43.4426 -40.1299 EX 60 -4 11 116
1949248N27320 1949 70 NA NA NOT_NAMED 1949-09-15 06:00:00 ET 43.2000 -39.4000 55 hurdat_atl main 1131 1131 O_____________ hurdat_atl AL061949 43.2000 -39.4000 EX 55 -4 12 115
1949248N27320 1949 70 NA NA NOT_NAMED 1949-09-15 09:00:00 ET 42.9623 -38.6847 main 1191 1191 P_____________ AL061949 42.9623 -38.6847 EX 50 -4 11 111
1949248N27320 1949 70 NA NA NOT_NAMED 1949-09-15 12:00:00 ET 42.8000 -38.0000 45 hurdat_atl main 1251 1251 O_____________ hurdat_atl AL061949 42.8000 -38.0000 EX 45 -4 10 102
1949248N27320 1949 70 NA NA NOT_NAMED 1949-09-15 15:00:00 ET 42.7547 -37.3706 main 1294 1294 P_____________ AL061949 42.7547 -37.3706 EX 42 -4 9 90
1949248N27320 1949 70 NA NA NOT_NAMED 1949-09-15 18:00:00 ET 42.8000 -36.8000 40 hurdat_atl main 1336 1336 O_____________ hurdat_atl AL061949 42.8000 -36.8000 EX 40 -4 8 83
1949248N27320 1949 70 NA NA NOT_NAMED 1949-09-15 21:00:00 ET 42.8472 -36.2769 main 1372 1372 P_____________ AL061949 42.8472 -36.2769 EX 37 -4 8 75
1949248N27320 1949 70 NA NA NOT_NAMED 1949-09-16 00:00:00 ET 43.0000 -35.8000 35 hurdat_atl main 1398 1398 O_____________ hurdat_atl AL061949 43.0000 -35.8000 EX 35 -4 8 58
1949248N27320 1949 70 NA NA NOT_NAMED 1949-09-16 03:00:00 ET 43.2673 -35.3417 main 1420 1420 P_____________ AL061949 43.2673 -35.3417 EX 35 -4 10 43
1949248N27320 1949 70 NA NA NOT_NAMED 1949-09-16 06:00:00 ET 43.7000 -34.9000 35 hurdat_atl main 1431 1431 O_____________ hurdat_atl AL061949 43.7000 -34.9000 EX 35 -4 12 32
1949248N27320 1949 70 NA NA NOT_NAMED 1949-09-16 09:00:00 ET 44.2899 -34.4424 main 1443 1439 P_____________ AL061949 44.2899 -34.4424 EX 35 -4 15 26
1949248N27320 1949 70 NA NA NOT_NAMED 1949-09-16 12:00:00 ET 45.0000 -34.0000 35 hurdat_atl main 1447 1444 O_____________ hurdat_atl AL061949 45.0000 -34.0000 EX 35 -4 16 22
1949248N27320 1949 70 NA NA NOT_NAMED 1949-09-16 15:00:00 ET 45.7452 -33.5916 main 1455 1452 P_____________ AL061949 45.7452 -33.5916 EX 32 -4 16 20
1949248N27320 1949 70 NA NA NOT_NAMED 1949-09-16 18:00:00 ET 46.5000 -33.2000 30 hurdat_atl main 1465 O_____________ hurdat_atl AL061949 46.5000 -33.2000 EX 30 -4 16 20

IBTrACS Databaseについて

本データベースは、米国NOAAが公開する1842年以降の世界の熱帯低気圧のベストトラックデータアーカイブInternational Best Track Archive for Climate Stewardship (IBTrACS)を、ウェブで閲覧しやすい形式に変換したものです。

最終更新日:2021-10-19